createdAt,value
2017-08-06T00:01:42.298Z,19.10
2017-08-06T00:04:08.492Z,19.00
2017-08-06T00:06:34.742Z,18.80
2017-08-06T00:09:01.007Z,18.90
2017-08-06T00:11:27.895Z,18.90
2017-08-06T00:13:54.111Z,19.00
2017-08-06T00:16:20.262Z,19.00
2017-08-06T00:18:46.457Z,18.90
2017-08-06T00:21:12.668Z,18.90
2017-08-06T00:23:39.596Z,19.10
2017-08-06T00:26:05.823Z,19.10
2017-08-06T00:28:32.770Z,19.30
2017-08-06T00:30:58.939Z,19.40
2017-08-06T00:33:25.128Z,19.40
2017-08-06T00:35:51.310Z,19.40
2017-08-06T00:38:17.487Z,19.10
2017-08-06T00:40:44.510Z,19.20
2017-08-06T00:43:10.670Z,19.20
2017-08-06T00:45:37.223Z,19.20
2017-08-06T00:48:03.414Z,19.30
2017-08-06T00:50:29.597Z,19.20
2017-08-06T00:52:55.786Z,19.10
2017-08-06T00:55:22.747Z,19.00
2017-08-06T00:57:49.686Z,18.90
2017-08-06T01:00:16.610Z,18.80
2017-08-06T01:02:43.534Z,18.70
2017-08-06T01:05:09.732Z,18.50
2017-08-06T01:07:35.894Z,18.50
2017-08-06T01:10:02.126Z,18.40
2017-08-06T01:12:28.297Z,18.50
2017-08-06T01:14:55.237Z,18.30
2017-08-06T01:17:22.203Z,18.20
2017-08-06T01:19:48.362Z,18.10
2017-08-06T01:22:14.558Z,18.10
2017-08-06T01:24:40.838Z,18.00
2017-08-06T01:27:07.041Z,18.10
2017-08-06T01:29:33.223Z,18.10
2017-08-06T01:31:59.432Z,18.00
2017-08-06T01:34:25.641Z,18.00
2017-08-06T01:36:51.859Z,18.00
2017-08-06T01:39:18.026Z,18.00
2017-08-06T01:41:44.968Z,18.00
2017-08-06T01:44:11.173Z,18.00
2017-08-06T01:46:37.407Z,17.90
2017-08-06T01:49:03.614Z,17.90
2017-08-06T01:51:29.838Z,17.90
2017-08-06T01:53:56.067Z,17.90
2017-08-06T01:56:22.243Z,17.80
2017-08-06T01:58:48.481Z,17.80
2017-08-06T02:01:15.406Z,17.80
2017-08-06T02:03:41.637Z,17.80
2017-08-06T02:06:07.829Z,17.80
2017-08-06T02:08:34.021Z,17.80
2017-08-06T02:11:00.990Z,17.90
2017-08-06T02:13:27.195Z,17.80
2017-08-06T02:15:54.122Z,17.80
2017-08-06T02:18:20.316Z,17.80
2017-08-06T02:20:46.527Z,18.00
2017-08-06T02:23:12.741Z,18.00
2017-08-06T02:25:38.908Z,18.00
2017-08-06T02:28:05.096Z,18.00
2017-08-06T02:30:31.287Z,18.10
2017-08-06T02:32:57.503Z,18.10
2017-08-06T02:35:23.728Z,18.20
2017-08-06T02:37:49.906Z,18.40
2017-08-06T02:40:16.083Z,18.30
2017-08-06T02:42:42.292Z,18.50
2017-08-06T02:45:08.446Z,18.20
2017-08-06T02:47:34.621Z,18.10
2017-08-06T02:50:00.843Z,18.00
2017-08-06T02:52:27.028Z,17.70
2017-08-06T02:54:53.210Z,17.60
2017-08-06T02:57:19.401Z,17.50
2017-08-06T02:59:45.570Z,17.50
2017-08-06T03:02:11.820Z,17.40
2017-08-06T03:04:38.014Z,17.60
2017-08-06T03:07:04.242Z,17.80
2017-08-06T03:09:30.461Z,18.00
2017-08-06T03:11:57.388Z,18.00
2017-08-06T03:14:23.582Z,18.00
2017-08-06T03:16:49.746Z,18.10
2017-08-06T03:19:15.935Z,18.10
2017-08-06T03:21:42.105Z,18.10
2017-08-06T03:24:08.297Z,18.10
2017-08-06T03:26:34.476Z,17.90
2017-08-06T03:29:00.694Z,17.90
2017-08-06T03:31:27.610Z,18.00
2017-08-06T03:33:53.807Z,17.90
2017-08-06T03:36:19.991Z,18.00
2017-08-06T03:38:46.167Z,18.00
2017-08-06T03:41:12.393Z,18.20
2017-08-06T03:43:38.983Z,18.30
2017-08-06T03:46:05.565Z,18.40
2017-08-06T03:48:31.725Z,18.40
2017-08-06T03:50:57.950Z,18.40
2017-08-06T03:53:24.206Z,18.40
2017-08-06T03:55:50.374Z,18.40
2017-08-06T03:58:16.597Z,18.30
2017-08-06T04:00:43.220Z,18.30
2017-08-06T04:03:09.466Z,18.20
2017-08-06T04:05:35.648Z,18.20
2017-08-06T04:08:01.804Z,18.30
2017-08-06T04:10:28.751Z,18.20
2017-08-06T04:12:54.957Z,18.20
2017-08-06T04:15:21.184Z,18.20
2017-08-06T04:17:48.064Z,18.10
2017-08-06T04:20:14.266Z,18.10
2017-08-06T04:22:41.201Z,18.00
2017-08-06T04:25:07.359Z,18.00
2017-08-06T04:27:33.550Z,18.00
2017-08-06T04:29:59.752Z,18.00
2017-08-06T04:32:25.946Z,18.00
2017-08-06T04:34:53.096Z,18.10
2017-08-06T04:37:19.282Z,18.00
2017-08-06T04:39:45.855Z,18.00
2017-08-06T04:42:12.063Z,18.10
2017-08-06T04:44:39.225Z,18.00
2017-08-06T04:47:06.196Z,18.00
2017-08-06T04:49:32.380Z,18.10
2017-08-06T04:51:58.695Z,18.10
2017-08-06T04:54:24.922Z,18.20
2017-08-06T04:56:51.098Z,18.20
2017-08-06T04:59:18.007Z,18.40
2017-08-06T05:01:44.345Z,18.30
2017-08-06T05:04:10.514Z,18.40
2017-08-06T05:06:36.708Z,18.40
2017-08-06T05:09:03.173Z,18.40
2017-08-06T05:11:29.362Z,18.50
2017-08-06T05:13:55.551Z,18.50
2017-08-06T05:16:21.787Z,18.50
2017-08-06T05:18:47.981Z,18.60
2017-08-06T05:21:14.950Z,18.50
2017-08-06T05:23:41.167Z,18.40
2017-08-06T05:26:07.355Z,18.40
2017-08-06T05:28:33.591Z,18.40
2017-08-06T05:30:59.800Z,18.50
2017-08-06T05:33:25.995Z,18.50
2017-08-06T05:35:52.223Z,18.70
2017-08-06T05:38:18.400Z,18.80
2017-08-06T05:40:44.573Z,18.70
2017-08-06T05:43:10.718Z,19.00
2017-08-06T05:45:36.894Z,19.20
2017-08-06T05:48:04.026Z,19.90
2017-08-06T05:50:30.217Z,20.00
2017-08-06T05:52:56.466Z,20.20
2017-08-06T05:55:22.673Z,20.40
2017-08-06T05:57:48.882Z,20.90
2017-08-06T06:00:15.073Z,21.20
2017-08-06T06:02:41.288Z,21.00
2017-08-06T06:05:08.102Z,21.30
2017-08-06T06:07:35.962Z,21.60
2017-08-06T06:10:02.121Z,21.70
2017-08-06T06:12:28.319Z,21.70
2017-08-06T06:14:54.526Z,21.90
2017-08-06T06:17:21.424Z,22.00
2017-08-06T06:19:47.647Z,22.00
2017-08-06T06:22:13.846Z,22.30
2017-08-06T06:24:40.743Z,22.10
2017-08-06T06:27:06.918Z,22.10
2017-08-06T06:29:33.105Z,22.10
2017-08-06T06:31:59.282Z,22.20
2017-08-06T06:34:25.479Z,22.50
2017-08-06T06:36:52.874Z,22.90
2017-08-06T06:39:19.027Z,23.20
2017-08-06T06:41:45.226Z,23.30
2017-08-06T06:44:11.538Z,23.50
2017-08-06T06:46:37.730Z,23.50
2017-08-06T06:49:05.025Z,23.40
2017-08-06T06:51:31.228Z,23.50
2017-08-06T06:54:00.781Z,23.80
2017-08-06T06:56:26.958Z,24.10
2017-08-06T06:58:53.934Z,24.20
2017-08-06T07:01:20.114Z,24.50
2017-08-06T07:03:46.294Z,24.50
2017-08-06T07:06:12.475Z,24.80
2017-08-06T07:08:38.695Z,25.00
2017-08-06T07:11:04.855Z,25.00
2017-08-06T07:13:31.779Z,25.50
2017-08-06T07:15:58.004Z,25.40
2017-08-06T07:18:25.032Z,25.30
2017-08-06T07:20:51.158Z,25.40
2017-08-06T07:23:17.304Z,25.70
2017-08-06T07:25:43.470Z,26.10
2017-08-06T07:28:10.026Z,26.30
2017-08-06T07:30:36.575Z,26.50
2017-08-06T07:33:02.766Z,26.70
2017-08-06T07:35:29.393Z,26.90
2017-08-06T07:37:56.334Z,27.10
2017-08-06T07:40:23.494Z,27.20
2017-08-06T07:42:50.424Z,27.50
2017-08-06T07:45:17.414Z,27.20
2017-08-06T07:47:43.629Z,27.00
2017-08-06T07:50:09.815Z,27.40
2017-08-06T07:52:36.000Z,27.70
2017-08-06T07:55:02.295Z,28.00
2017-08-06T07:57:29.279Z,28.30
2017-08-06T07:59:56.594Z,28.30
2017-08-06T08:02:23.761Z,28.40
2017-08-06T08:04:49.953Z,28.60
2017-08-06T08:07:17.121Z,29.00
2017-08-06T08:09:43.835Z,29.40
2017-08-06T08:12:12.593Z,29.50
2017-08-06T08:14:38.747Z,29.60
2017-08-06T08:17:05.092Z,29.70
2017-08-06T08:22:07.833Z,29.70
2017-08-06T08:24:33.971Z,29.90
2017-08-06T08:27:01.090Z,29.80
2017-08-06T08:29:28.083Z,29.40
2017-08-06T08:31:54.244Z,28.80
2017-08-06T08:34:20.537Z,28.80
2017-08-06T08:36:46.757Z,28.20
2017-08-06T08:39:12.960Z,27.10
2017-08-06T08:41:39.884Z,27.10
2017-08-06T08:44:06.107Z,27.00
2017-08-06T08:46:32.283Z,27.10
2017-08-06T08:48:58.452Z,27.10
2017-08-06T08:51:24.692Z,27.50
2017-08-06T08:53:50.928Z,27.90
2017-08-06T08:56:17.124Z,28.40
2017-08-06T08:58:43.318Z,28.50
2017-08-06T09:01:09.488Z,28.50
2017-08-06T09:03:35.690Z,28.60
2017-08-06T09:06:01.841Z,28.70
2017-08-06T09:08:28.058Z,29.00
2017-08-06T09:10:54.218Z,29.20
2017-08-06T09:13:20.398Z,29.00
2017-08-06T09:15:46.604Z,28.80
2017-08-06T09:18:12.776Z,28.70
2017-08-06T09:20:38.985Z,28.70
2017-08-06T09:23:05.204Z,28.50
2017-08-06T09:25:31.351Z,28.30
2017-08-06T09:27:57.594Z,28.40
2017-08-06T09:30:23.739Z,27.90
2017-08-06T09:32:49.935Z,28.10
2017-08-06T09:35:16.102Z,28.10
2017-08-06T09:37:43.022Z,28.30
2017-08-06T09:40:09.246Z,28.20
2017-08-06T09:42:35.467Z,28.00
2017-08-06T09:45:01.710Z,27.10
2017-08-06T09:47:27.922Z,26.60
2017-08-06T09:49:54.104Z,26.50
2017-08-06T09:52:21.045Z,26.10
2017-08-06T09:54:47.218Z,27.10
2017-08-06T09:57:13.460Z,28.20
2017-08-06T09:59:39.625Z,29.20
2017-08-06T10:02:05.821Z,30.10
2017-08-06T10:04:32.744Z,31.00
2017-08-06T10:06:58.954Z,31.00
2017-08-06T10:09:25.147Z,31.00
2017-08-06T10:11:51.347Z,31.60
2017-08-06T10:14:18.564Z,30.70
2017-08-06T10:16:44.725Z,30.40
2017-08-06T10:19:10.933Z,29.80
2017-08-06T10:21:37.139Z,29.70
2017-08-06T10:24:04.068Z,28.90
2017-08-06T10:26:31.074Z,29.40
2017-08-06T10:28:57.238Z,29.40
2017-08-06T10:31:24.167Z,29.70
2017-08-06T10:33:50.364Z,29.90
2017-08-06T10:36:16.539Z,30.20
2017-08-06T10:38:42.741Z,30.30
2017-08-06T10:41:09.273Z,30.30
2017-08-06T10:43:35.452Z,30.40
2017-08-06T10:46:03.150Z,30.40
2017-08-06T10:48:29.358Z,29.70
2017-08-06T10:50:56.373Z,29.00
2017-08-06T10:53:22.570Z,28.40
2017-08-06T10:55:49.137Z,28.10
2017-08-06T10:58:15.388Z,28.40
2017-08-06T11:00:42.282Z,29.00
2017-08-06T11:03:08.590Z,29.60
2017-08-06T11:05:35.177Z,29.90
2017-08-06T11:08:01.376Z,29.70
2017-08-06T11:10:27.602Z,28.80
2017-08-06T11:12:53.779Z,27.90
2017-08-06T11:15:20.708Z,27.20
2017-08-06T11:17:46.883Z,26.90
2017-08-06T11:20:13.044Z,26.70
2017-08-06T11:22:39.251Z,26.70
2017-08-06T11:25:06.267Z,26.50
2017-08-06T11:27:33.209Z,27.50
2017-08-06T11:30:00.102Z,28.20
2017-08-06T11:32:41.199Z,28.10
2017-08-06T11:35:07.407Z,27.70
2017-08-06T11:37:33.590Z,27.70
2017-08-06T11:39:59.742Z,28.50
2017-08-06T11:42:25.956Z,28.40
2017-08-06T11:44:52.099Z,27.10
2017-08-06T11:47:18.354Z,27.40
2017-08-06T11:49:44.674Z,28.50
2017-08-06T11:52:10.897Z,28.50
2017-08-06T11:54:37.161Z,29.10
2017-08-06T11:57:03.335Z,28.70
2017-08-06T11:59:29.579Z,28.00
2017-08-06T12:01:55.795Z,27.90
2017-08-06T12:04:21.986Z,27.80
2017-08-06T12:06:48.211Z,27.20
2017-08-06T12:09:14.429Z,27.10
2017-08-06T12:11:40.623Z,26.50
2017-08-06T12:14:06.795Z,26.40
2017-08-06T12:16:33.001Z,26.50
2017-08-06T12:18:59.226Z,26.40
2017-08-06T12:21:25.421Z,26.30
2017-08-06T12:23:51.558Z,26.10
2017-08-06T12:26:17.759Z,25.90
2017-08-06T12:28:44.669Z,25.80
2017-08-06T12:31:10.866Z,25.80
2017-08-06T12:33:37.072Z,25.70
2017-08-06T12:36:03.288Z,25.80
2017-08-06T12:38:30.193Z,26.30
2017-08-06T12:40:56.373Z,26.30
2017-08-06T12:43:22.546Z,26.30
2017-08-06T12:45:48.742Z,26.10
2017-08-06T12:48:14.892Z,25.80
2017-08-06T12:50:41.169Z,25.50
2017-08-06T12:53:08.130Z,25.10
2017-08-06T12:55:34.302Z,25.10
2017-08-06T12:58:00.517Z,25.30
2017-08-06T13:00:26.708Z,25.20
2017-08-06T13:02:53.690Z,25.10
2017-08-06T13:05:19.970Z,25.00
2017-08-06T13:07:46.955Z,25.00
2017-08-06T13:10:13.138Z,24.90
2017-08-06T13:12:39.316Z,24.80
2017-08-06T13:15:05.894Z,25.70
2017-08-06T13:17:32.233Z,27.50
2017-08-06T13:19:58.405Z,28.90
2017-08-06T13:22:24.632Z,30.60
2017-08-06T13:24:50.797Z,30.60
2017-08-06T13:27:16.990Z,31.00
2017-08-06T13:29:43.154Z,31.40
2017-08-06T13:32:09.343Z,31.40
2017-08-06T13:34:35.527Z,32.00
2017-08-06T13:37:01.678Z,30.70
2017-08-06T13:39:28.611Z,29.20
2017-08-06T13:41:54.777Z,28.40
2017-08-06T13:44:21.116Z,28.10
2017-08-06T13:46:47.333Z,28.50
2017-08-06T13:49:13.926Z,29.40
2017-08-06T13:51:40.123Z,30.00
2017-08-06T13:54:06.319Z,30.30
2017-08-06T13:56:32.898Z,30.30
2017-08-06T13:58:59.076Z,30.50
2017-08-06T14:01:25.283Z,30.70
2017-08-06T14:03:51.509Z,30.30
2017-08-06T14:06:17.754Z,30.30
2017-08-06T14:08:44.706Z,28.00
2017-08-06T14:11:11.752Z,27.20
2017-08-06T14:13:38.652Z,26.80
2017-08-06T14:16:04.847Z,26.90
2017-08-06T14:18:31.381Z,27.20
2017-08-06T14:20:57.682Z,27.50
2017-08-06T14:23:25.573Z,27.50
2017-08-06T14:25:51.771Z,27.40
2017-08-06T14:28:17.964Z,27.50
2017-08-06T14:30:44.182Z,27.40
2017-08-06T14:33:10.343Z,27.30
2017-08-06T14:35:36.507Z,27.30
2017-08-06T14:38:03.435Z,27.10
2017-08-06T14:40:30.553Z,27.10
2017-08-06T14:42:56.922Z,27.10
2017-08-06T14:45:24.306Z,27.00
2017-08-06T14:47:50.534Z,27.00
2017-08-06T14:50:16.737Z,26.90
2017-08-06T14:52:43.059Z,26.90
2017-08-06T14:55:09.993Z,26.70
2017-08-06T14:57:36.351Z,26.50
2017-08-06T15:00:03.289Z,26.50
2017-08-06T15:02:30.203Z,26.30
2017-08-06T15:04:56.410Z,26.30
2017-08-06T15:07:22.611Z,26.30
2017-08-06T15:09:49.038Z,26.30
2017-08-06T15:12:16.019Z,26.20
2017-08-06T15:14:42.407Z,26.10
2017-08-06T15:17:09.341Z,25.90
2017-08-06T15:19:35.510Z,25.90
2017-08-06T15:22:01.791Z,25.90
2017-08-06T15:24:27.965Z,25.90
2017-08-06T15:26:54.137Z,25.80
2017-08-06T15:29:20.330Z,25.80
2017-08-06T15:31:46.479Z,25.80
2017-08-06T15:34:12.706Z,25.70
2017-08-06T15:36:38.920Z,23.30
2017-08-06T15:39:05.109Z,25.70
2017-08-06T15:41:32.063Z,25.60
2017-08-06T15:43:58.262Z,25.60
2017-08-06T15:46:24.502Z,25.50
2017-08-06T15:48:50.709Z,25.40
2017-08-06T15:51:16.930Z,25.30
2017-08-06T15:53:43.164Z,25.30
2017-08-06T15:56:09.376Z,25.20
2017-08-06T15:58:36.407Z,25.10
2017-08-06T16:01:02.615Z,25.10
2017-08-06T16:03:28.801Z,24.90
2017-08-06T16:05:55.027Z,24.80
2017-08-06T16:08:21.200Z,24.90
2017-08-06T16:10:47.398Z,24.80
2017-08-06T16:13:13.627Z,24.70
2017-08-06T16:15:40.574Z,24.70
2017-08-06T16:18:06.783Z,24.60
2017-08-06T16:20:32.999Z,24.60
2017-08-06T16:22:59.178Z,24.40
2017-08-06T16:25:26.887Z,24.40
2017-08-06T16:27:53.124Z,24.40
2017-08-06T16:30:19.347Z,24.40
2017-08-06T16:32:45.572Z,24.30
2017-08-06T16:35:11.795Z,24.30
2017-08-06T16:37:37.963Z,24.30
2017-08-06T16:40:04.133Z,24.30
2017-08-06T16:42:31.354Z,24.30
2017-08-06T16:44:58.250Z,24.20
2017-08-06T16:47:24.461Z,24.20
2017-08-06T16:49:50.679Z,24.20
2017-08-06T16:52:16.886Z,24.10
2017-08-06T16:54:43.901Z,24.00
2017-08-06T16:57:10.107Z,23.90
2017-08-06T16:59:36.321Z,23.90
2017-08-06T17:02:02.501Z,23.90
2017-08-06T17:04:29.570Z,23.90
2017-08-06T17:06:56.543Z,23.90
2017-08-06T17:09:23.076Z,23.80
2017-08-06T17:11:49.333Z,23.80
2017-08-06T17:14:15.517Z,23.80
2017-08-06T17:16:42.430Z,23.60
2017-08-06T17:19:08.642Z,23.60
2017-08-06T17:21:34.822Z,23.60
2017-08-06T17:24:01.746Z,23.50
2017-08-06T17:26:27.928Z,23.50
2017-08-06T17:28:54.148Z,23.50
2017-08-06T17:31:20.400Z,23.40
2017-08-06T17:33:46.579Z,23.30
2017-08-06T17:36:13.523Z,23.20
2017-08-06T17:38:40.439Z,23.10
2017-08-06T17:41:06.756Z,23.10
2017-08-06T17:43:32.982Z,23.10
2017-08-06T17:45:59.160Z,23.00
2017-08-06T17:48:25.398Z,23.10
2017-08-06T17:50:51.615Z,23.10
2017-08-06T17:53:17.886Z,23.00
2017-08-06T17:55:44.463Z,23.00
2017-08-06T17:58:10.647Z,23.00
2017-08-06T18:00:36.917Z,23.00
2017-08-06T18:03:03.074Z,23.00
2017-08-06T18:05:29.319Z,23.00
2017-08-06T18:07:55.512Z,22.90
2017-08-06T18:10:21.708Z,22.90
2017-08-06T18:12:47.872Z,22.90
2017-08-06T18:15:15.715Z,22.90
2017-08-06T18:17:41.962Z,22.80
2017-08-06T18:20:08.185Z,22.90
2017-08-06T18:22:35.094Z,22.80
2017-08-06T18:25:01.442Z,22.80
2017-08-06T18:27:27.699Z,22.80
2017-08-06T18:29:54.301Z,22.80
2017-08-06T18:32:20.615Z,22.70
2017-08-06T18:34:46.803Z,22.60
2017-08-06T18:37:13.695Z,22.50
2017-08-06T18:39:39.914Z,22.70
2017-08-06T18:42:06.101Z,22.50
2017-08-06T18:44:33.034Z,22.40
2017-08-06T18:46:59.253Z,22.30
2017-08-06T18:49:25.491Z,22.30
2017-08-06T18:51:51.780Z,22.20
2017-08-06T18:54:18.062Z,22.20
2017-08-06T18:56:44.333Z,22.10
2017-08-06T18:59:10.566Z,22.20
2017-08-06T19:01:51.691Z,22.10
2017-08-06T19:04:17.943Z,22.10
2017-08-06T19:06:44.187Z,22.00
2017-08-06T19:09:10.485Z,22.00
2017-08-06T19:11:36.685Z,22.00
2017-08-06T19:14:02.958Z,21.90
2017-08-06T19:16:29.950Z,21.70
2017-08-06T19:18:56.242Z,21.70
2017-08-06T19:21:23.039Z,21.70
2017-08-06T19:23:49.266Z,21.70
2017-08-06T19:26:15.485Z,21.60
2017-08-06T19:28:41.723Z,21.40
2017-08-06T19:31:07.979Z,21.40
2017-08-06T19:33:35.048Z,21.40
2017-08-06T19:36:01.427Z,21.40
2017-08-06T19:38:28.220Z,21.30
2017-08-06T20:09:50.649Z,20.90
2017-08-06T20:12:17.123Z,20.90
2017-08-06T20:14:43.349Z,20.80
2017-08-06T20:17:09.498Z,20.80
2017-08-06T20:19:35.714Z,20.80
2017-08-06T20:22:04.132Z,20.80
2017-08-06T20:24:30.409Z,20.80
2017-08-06T20:26:56.586Z,20.80
2017-08-06T20:29:22.773Z,20.70
2017-08-06T20:31:51.172Z,20.60
2017-08-06T20:34:17.410Z,20.60
2017-08-06T20:36:43.590Z,20.50
2017-08-06T20:39:10.532Z,20.40
2017-08-06T20:41:36.780Z,20.50
2017-08-06T20:44:02.978Z,20.40
2017-08-06T20:46:34.467Z,20.30
2017-08-06T20:49:03.278Z,20.10
2017-08-06T20:51:29.749Z,20.10
2017-08-06T20:53:56.703Z,20.10
2017-08-06T20:56:22.945Z,20.10
2017-08-06T21:08:34.900Z,20.20
2017-08-06T21:11:01.877Z,20.10
2017-08-06T21:13:28.113Z,20.10
2017-08-06T21:15:54.378Z,20.10
2017-08-06T21:18:20.544Z,20.10
2017-08-06T21:20:48.153Z,19.90
2017-08-06T21:23:14.736Z,20.00
2017-08-06T21:25:40.916Z,20.00
2017-08-06T21:28:07.123Z,20.00
2017-08-06T21:30:33.391Z,20.00
2017-08-06T21:32:59.580Z,20.00
2017-08-06T21:35:27.777Z,20.00
2017-08-06T21:37:54.929Z,19.90
2017-08-06T21:40:21.303Z,19.90
2017-08-06T21:42:50.207Z,19.80
2017-08-06T21:45:17.171Z,19.80
2017-08-06T21:47:45.186Z,19.80
2017-08-06T21:50:11.361Z,19.80
2017-08-06T21:52:37.543Z,19.80
2017-08-06T21:55:03.779Z,19.70
2017-08-06T21:57:29.952Z,19.70
2017-08-06T21:59:56.345Z,19.60
2017-08-06T22:02:23.397Z,19.60
2017-08-06T22:04:49.581Z,19.50
2017-08-06T22:07:15.745Z,19.60
2017-08-06T22:09:41.934Z,19.50
2017-08-06T22:12:08.108Z,19.50
2017-08-06T22:14:35.076Z,19.50
2017-08-06T22:17:01.986Z,19.50
2017-08-06T22:19:28.197Z,19.50
2017-08-06T22:21:54.398Z,19.40
2017-08-06T22:24:20.542Z,19.40
2017-08-06T22:26:46.753Z,19.30
2017-08-06T22:29:13.014Z,19.30
2017-08-06T22:31:39.193Z,19.20
2017-08-06T22:34:06.146Z,19.20
2017-08-06T22:36:32.317Z,19.20
2017-08-06T22:38:58.499Z,19.10
2017-08-06T22:41:25.475Z,19.10
2017-08-06T22:43:51.628Z,19.10
2017-08-06T22:46:17.772Z,19.10
2017-08-06T22:48:43.902Z,19.10
2017-08-06T22:51:11.039Z,19.10
2017-08-06T22:53:37.214Z,19.20
2017-08-06T22:56:03.402Z,19.20
2017-08-06T22:58:32.581Z,19.20
2017-08-06T23:00:59.326Z,19.20
2017-08-06T23:03:25.532Z,19.10
2017-08-06T23:05:51.730Z,19.00
2017-08-06T23:08:18.649Z,19.00
2017-08-06T23:10:44.815Z,18.90
2017-08-06T23:13:11.329Z,18.90
2017-08-06T23:15:38.315Z,19.00
2017-08-06T23:18:04.491Z,19.00
2017-08-06T23:20:31.439Z,19.00
2017-08-06T23:22:58.397Z,19.00
2017-08-06T23:25:25.351Z,18.90
2017-08-06T23:27:52.245Z,18.80
2017-08-06T23:30:18.983Z,18.80
2017-08-06T23:32:45.144Z,18.80
2017-08-06T23:35:12.214Z,18.80
2017-08-06T23:37:38.363Z,18.70
2017-08-06T23:40:05.372Z,18.50
2017-08-06T23:42:32.316Z,18.30
2017-08-06T23:44:59.206Z,18.20
2017-08-06T23:47:25.374Z,18.20
2017-08-06T23:49:51.552Z,18.30
2017-08-06T23:52:17.722Z,18.50
2017-08-06T23:54:43.922Z,18.50
2017-08-06T23:57:10.095Z,18.60
2017-08-06T23:59:36.280Z,18.60
